Waidhofen an der Thaya, Austria
Current Conditions -  °F | °C
As of 9:00 AM on Friday 24 Oct 2014 (Local Time) from LKNA Reporting Station
Broken Clouds Broken Clouds  
Wind Chill: 37°   Ceiling: 2000
Heat Index: 43°   Visibility: 6mi
Dew Point: 41°   Wind: 10mph
Humidity: 93%   Direction: 340°NNW
Pressure: 30.15"   Gusts: NA
Location:  48.82°N, 15.28°E
Report Text: LKNA 240700Z 34009KT 9999 SCT012 BKN020 06/05 Q1021 NOSIG
Loading
Personal Weather Stations






























Interactive Weather Map
Tropical Storm Tracking
New forecast layout! Learn more

10-Day Weather Forecast

Advertisements
Track Severe Weather on mobile